createdAt,value
2019-06-11T09:18:52.550Z,5056
2019-06-11T09:20:03.686Z,4984
2019-06-11T09:21:05.949Z,4880
2019-06-11T09:22:10.666Z,4716
2019-06-11T09:23:13.527Z,4588
2019-06-11T09:24:15.754Z,5024
2019-06-11T09:25:20.288Z,4828
2019-06-11T09:26:22.861Z,4188
2019-06-11T09:27:25.424Z,3992
2019-06-11T09:28:30.209Z,4052
2019-06-11T09:29:33.080Z,4512
2019-06-11T09:30:35.388Z,5216
2019-06-11T09:31:37.581Z,5972
2019-06-11T09:32:45.236Z,6100
2019-06-11T09:33:54.653Z,5668
2019-06-11T09:34:57.361Z,5552
2019-06-11T09:36:03.279Z,5792
2019-06-11T09:37:06.250Z,5916
2019-06-11T09:38:10.532Z,5632
2019-06-11T09:39:13.362Z,5048
2019-06-11T09:40:15.883Z,4260
2019-06-11T09:41:20.781Z,3772
2019-06-11T09:42:23.428Z,3792
2019-06-11T09:43:25.923Z,3972
2019-06-11T09:44:32.048Z,4308
2019-06-11T09:45:35.600Z,4276
2019-06-11T09:46:46.221Z,4180
2019-06-11T09:48:03.942Z,4012
2019-06-11T09:49:14.562Z,3976
2019-06-11T09:50:17.994Z,3976
2019-06-11T09:51:23.788Z,3996
2019-06-11T09:52:26.308Z,3748
2019-06-11T09:53:30.880Z,3788
2019-06-11T09:54:33.378Z,3800
2019-06-11T09:55:36.423Z,3792
2019-06-11T09:56:44.574Z,3936
2019-06-11T09:58:00.595Z,4020
2019-06-11T09:59:06.692Z,4028
2019-06-11T10:00:12.258Z,3840
2019-06-11T10:01:14.832Z,3696
2019-06-11T10:02:17.119Z,4344
2019-06-11T10:03:22.007Z,4396
2019-06-11T10:04:24.195Z,4344
2019-06-11T10:05:27.162Z,4300
2019-06-11T10:06:33.855Z,4216
2019-06-11T10:07:36.667Z,4836
2019-06-11T10:08:43.863Z,4788
2019-06-11T10:09:53.576Z,4840
2019-06-11T10:11:32.245Z,5324
2019-06-11T10:13:08.006Z,7452
2019-06-11T10:14:13.271Z,8072
2019-06-11T10:15:15.810Z,6936
2019-06-11T10:16:18.312Z,5076
2019-06-11T10:17:24.998Z,6928
2019-06-11T10:18:27.160Z,7332
2019-06-11T10:19:32.485Z,7004
2019-06-11T10:20:36.577Z,6792
2019-06-11T10:21:40.996Z,6208
2019-06-11T10:22:46.930Z,7272
2019-06-11T10:24:00.779Z,7032
2019-06-11T10:25:03.483Z,6004
2019-06-11T10:26:06.008Z,7584
2019-06-11T10:27:10.393Z,9652
2019-06-11T10:28:18.077Z,10316
2019-06-11T10:29:30.328Z,11064
2019-06-11T10:30:32.998Z,9320
2019-06-11T10:31:35.491Z,11164
2019-06-11T10:32:41.120Z,12128
2019-06-11T10:33:45.860Z,13160
2019-06-11T10:35:00.566Z,14604
2019-06-11T10:36:06.233Z,17600
2019-06-11T10:37:12.908Z,17920
2019-06-11T10:38:15.842Z,17888
2019-06-11T10:39:25.605Z,22528
2019-06-11T10:40:30.659Z,20032
2019-06-11T10:41:47.074Z,26816
2019-06-11T10:43:11.697Z,65600
2019-06-11T10:44:24.079Z,20256
2019-06-11T10:45:30.447Z,27488
2019-06-11T10:46:35.405Z,31584
2019-06-11T10:47:40.232Z,60800
2019-06-11T10:48:44.574Z,48928
2019-06-11T10:50:03.374Z,30496
2019-06-11T10:51:13.970Z,28160
2019-06-11T10:52:17.297Z,22336
2019-06-11T10:53:22.394Z,20576
2019-06-11T10:54:27.064Z,31552
2019-06-11T10:55:37.674Z,23936
2019-06-11T10:56:47.017Z,32704
2019-06-11T10:58:05.053Z,32224
2019-06-11T10:59:14.878Z,61504
2019-06-11T11:00:17.387Z,62080
2019-06-11T11:01:31.713Z,65984
2019-06-11T11:02:40.767Z,61056
2019-06-11T11:04:03.010Z,37568
2019-06-11T11:05:10.486Z,33568
2019-06-11T11:06:15.648Z,19936
2019-06-11T11:07:27.516Z,18592
2019-06-11T11:08:41.639Z,23072
2019-06-11T11:10:03.760Z,43776
2019-06-11T11:11:13.459Z,49664
2019-06-11T11:12:24.768Z,46624
2019-06-11T11:13:33.154Z,31008
2019-06-11T11:14:35.535Z,19552
2019-06-11T11:15:50.107Z,12100
2019-06-11T11:17:04.815Z,10084
2019-06-11T11:18:10.074Z,9096
2019-06-11T11:19:15.881Z,8136
2019-06-11T11:20:25.289Z,7868
2019-06-11T11:21:32.312Z,7832
2019-06-11T11:22:37.450Z,7820
2019-06-11T11:24:01.091Z,7540
2019-06-11T11:25:10.699Z,7772
2019-06-11T11:26:21.091Z,8140
2019-06-11T11:27:24.511Z,8364
2019-06-11T11:28:30.332Z,9604
2019-06-11T11:29:35.829Z,12132
2019-06-11T11:30:53.524Z,16936
2019-06-11T11:32:13.406Z,11412
2019-06-11T11:33:21.686Z,10816
2019-06-11T11:34:36.440Z,9936
2019-06-11T11:35:41.514Z,9948
2019-06-11T11:36:56.153Z,9240
2019-06-11T11:38:17.881Z,8944
2019-06-11T11:39:30.271Z,9708
2019-06-11T11:40:36.527Z,8860
2019-06-11T11:42:06.278Z,8916
2019-06-11T11:43:43.065Z,8964
2019-06-11T11:44:46.800Z,8332
2019-06-11T11:45:57.113Z,8520
2019-06-11T11:47:11.913Z,8524
2019-06-11T11:48:14.127Z,9044
2019-06-11T11:49:16.300Z,8628
2019-06-11T11:50:25.125Z,8684
2019-06-11T11:51:27.326Z,8916
2019-06-11T11:52:32.019Z,9124
2019-06-11T11:53:34.574Z,9376
2019-06-11T11:54:37.323Z,9080
2019-06-11T11:55:42.692Z,8412
2019-06-11T11:56:45.271Z,7580
2019-06-11T11:58:01.297Z,7492
2019-06-11T11:59:03.674Z,7916
2019-06-11T12:00:14.931Z,7984
2019-06-11T12:01:24.041Z,8988
2019-06-11T12:02:26.221Z,9804
2019-06-11T12:03:28.499Z,10896
2019-06-11T12:04:31.321Z,12996
2019-06-11T12:05:33.975Z,14888
2019-06-11T12:06:36.258Z,16996
2019-06-11T12:07:38.474Z,15788
2019-06-11T12:08:43.331Z,15852
2019-06-11T12:09:45.554Z,15280
2019-06-11T12:10:56.265Z,16016
2019-06-11T12:12:04.804Z,18720
2019-06-11T12:13:07.135Z,19776
2019-06-11T12:14:11.357Z,19744
2019-06-11T12:15:13.850Z,21440
2019-06-11T12:16:24.585Z,20576
2019-06-11T12:17:44.998Z,18368
2019-06-11T12:18:58.391Z,14788
2019-06-11T12:20:24.094Z,12404
2019-06-11T12:21:26.635Z,12832
2019-06-11T12:22:30.970Z,13336
2019-06-11T12:23:33.679Z,14760
2019-06-11T12:24:35.884Z,15332
2019-06-11T12:25:41.127Z,16056
2019-06-11T12:26:44.001Z,16008
2019-06-11T12:27:46.209Z,18208
2019-06-11T12:29:02.794Z,17576
2019-06-11T12:30:10.861Z,16240
2019-06-11T12:31:17.313Z,19808
2019-06-11T12:32:22.006Z,20800
2019-06-11T12:33:24.269Z,19104
2019-06-11T12:34:26.452Z,17224
2019-06-11T12:35:31.279Z,14888
2019-06-11T12:36:33.923Z,14700
2019-06-11T12:37:36.118Z,15196
2019-06-11T12:38:42.068Z,14668
2019-06-11T12:39:44.795Z,15740
2019-06-11T12:40:48.969Z,16192
2019-06-11T12:42:11.365Z,17952
2019-06-11T12:43:31.443Z,16936
2019-06-11T12:44:43.164Z,16788
2019-06-11T12:45:45.352Z,18592
2019-06-11T12:46:51.543Z,16604
2019-06-11T12:48:06.756Z,18144
2019-06-11T12:49:12.759Z,17348
2019-06-11T12:50:15.664Z,17448
2019-06-11T12:51:21.760Z,14244
2019-06-11T12:52:25.039Z,13388
2019-06-11T12:53:27.299Z,12584
2019-06-11T12:54:32.296Z,12508
2019-06-11T12:55:34.471Z,13908
2019-06-11T12:56:36.966Z,14620
2019-06-11T12:57:44.829Z,14484
2019-06-11T12:58:47.219Z,15072
2019-06-11T13:00:09.719Z,15492
2019-06-11T13:01:14.956Z,15720
2019-06-11T13:02:17.164Z,15944
2019-06-11T13:03:23.309Z,16364
2019-06-11T13:04:25.759Z,16284
2019-06-11T13:05:27.945Z,14128
2019-06-11T13:06:33.386Z,15268
2019-06-11T13:07:36.879Z,16248
2019-06-11T13:08:44.262Z,14768
2019-06-11T13:09:46.756Z,14572
2019-06-11T13:10:51.101Z,14220
2019-06-11T13:12:12.946Z,13560
2019-06-11T13:13:15.201Z,13524
2019-06-11T13:14:42.668Z,13104
2019-06-11T13:15:44.906Z,12616
2019-06-11T13:16:47.110Z,12184
2019-06-11T13:17:58.292Z,11736
2019-06-11T13:19:07.241Z,11404
2019-06-11T13:20:12.607Z,11280
2019-06-11T13:21:15.743Z,11332
2019-06-11T13:22:20.201Z,11156
2019-06-11T13:23:23.558Z,10844
2019-06-11T13:24:26.676Z,10852
2019-06-11T13:25:32.081Z,10948
2019-06-11T13:26:36.230Z,11060
2019-06-11T13:27:40.631Z,11196
2019-06-11T13:28:44.087Z,11604
2019-06-11T13:29:47.338Z,11840
2019-06-11T13:31:02.724Z,11420
2019-06-11T13:32:15.636Z,9852
2019-06-11T13:33:23.723Z,11728
2019-06-11T13:34:30.687Z,12084
2019-06-11T13:35:33.182Z,12832
2019-06-11T13:36:40.705Z,12380
2019-06-11T13:37:43.846Z,11552
2019-06-11T13:38:46.542Z,11580
2019-06-11T13:39:49.882Z,12084
2019-06-11T13:40:53.721Z,12700
2019-06-11T13:42:16.826Z,13028
2019-06-11T13:43:23.952Z,10468
2019-06-11T13:44:35.834Z,12976
2019-06-11T13:45:44.289Z,14732
2019-06-11T13:46:46.651Z,14544
2019-06-11T13:47:53.052Z,15084
2019-06-11T13:49:11.068Z,11584
2019-06-11T13:50:16.257Z,14212
2019-06-11T13:51:21.573Z,11816
2019-06-11T13:52:26.276Z,13328
2019-06-11T13:53:36.722Z,14952
2019-06-11T13:54:44.070Z,12112
2019-06-11T13:55:48.015Z,11036
2019-06-11T13:57:08.044Z,12484
2019-06-11T13:58:21.373Z,11748
2019-06-11T13:59:25.925Z,16040
2019-06-11T14:00:33.098Z,12044
2019-06-11T14:01:36.321Z,11712
2019-06-11T14:02:42.594Z,16312
2019-06-11T14:03:45.745Z,15904
2019-06-11T14:04:50.472Z,14296
2019-06-11T14:05:57.241Z,11912
2019-06-11T14:07:10.002Z,16904
2019-06-11T14:08:13.804Z,16720
2019-06-11T14:09:19.564Z,16712
2019-06-11T14:10:24.082Z,18112
2019-06-11T14:11:28.981Z,17252
2019-06-11T14:12:35.104Z,17312
2019-06-11T14:13:45.094Z,16196
2019-06-11T14:14:50.914Z,13188
2019-06-11T14:16:01.432Z,19360
2019-06-11T14:17:11.025Z,20416
2019-06-11T14:18:16.028Z,21888
2019-06-11T14:19:24.470Z,24384
2019-06-11T14:20:32.360Z,35104
2019-06-11T14:21:36.825Z,44608
2019-06-11T14:22:44.756Z,50592
2019-06-11T14:23:53.409Z,51968
2019-06-11T14:25:03.689Z,51136
2019-06-11T14:26:09.900Z,53824
2019-06-11T14:27:14.358Z,50976
2019-06-11T14:28:22.228Z,54368
2019-06-11T14:29:28.238Z,56544
2019-06-11T14:30:35.948Z,52448
2019-06-11T14:31:43.314Z,55904
2019-06-11T14:32:50.377Z,54720
2019-06-11T14:34:13.291Z,57376
2019-06-11T14:35:20.753Z,57280
2019-06-11T14:36:25.465Z,54720
2019-06-11T14:37:30.812Z,55712
2019-06-11T14:38:36.284Z,51488
2019-06-11T14:39:41.448Z,49568
2019-06-11T14:40:46.718Z,46912
2019-06-11T14:41:55.235Z,21120
2019-06-11T14:43:06.324Z,17396
2019-06-11T14:44:30.687Z,51968
2019-06-11T14:45:52.281Z,22688
2019-06-11T14:46:55.675Z,41664
2019-06-11T14:48:13.712Z,10752
2019-06-11T14:49:15.947Z,9688
2019-06-11T14:50:20.613Z,10748
2019-06-11T14:51:23.525Z,11528
2019-06-11T14:52:25.724Z,9696
2019-06-11T14:53:30.477Z,8828
2019-06-11T14:54:33.609Z,8164
2019-06-11T14:55:35.821Z,8880
2019-06-11T14:56:40.880Z,8248
2019-06-11T14:57:43.238Z,10012
2019-06-11T14:58:45.558Z,12820
2019-06-11T14:59:47.786Z,29920
2019-06-11T15:00:52.472Z,34752
2019-06-11T15:01:55.289Z,14392
2019-06-11T15:03:03.486Z,17048
2019-06-11T15:04:15.618Z,23904
2019-06-11T15:05:17.862Z,11740
2019-06-11T15:06:23.706Z,8880
2019-06-11T15:07:25.954Z,8568
2019-06-11T15:08:28.231Z,8204
2019-06-11T15:09:31.211Z,8776
2019-06-11T15:10:33.646Z,10124
2019-06-11T15:11:35.902Z,12108
2019-06-11T15:12:40.613Z,11296
2019-06-11T15:13:43.453Z,10980
2019-06-11T15:14:54.115Z,16164
2019-06-11T15:16:25.811Z,9420
2019-06-11T15:17:33.981Z,8096
2019-06-11T15:18:44.334Z,7200
2019-06-11T15:20:02.053Z,7116
2019-06-11T15:21:32.297Z,8144
2019-06-11T15:22:34.469Z,9212
2019-06-11T15:23:36.802Z,9056
2019-06-11T15:24:43.433Z,8516
2019-06-11T15:25:45.770Z,9280
2019-06-11T15:26:50.458Z,15464
2019-06-11T15:27:53.786Z,12580
2019-06-11T15:28:55.988Z,10196
2019-06-11T15:30:01.248Z,9568
2019-06-11T15:31:37.304Z,9048
2019-06-11T15:32:45.266Z,17024
2019-06-11T15:33:50.875Z,12292
2019-06-11T15:34:54.188Z,10244
2019-06-11T15:35:56.750Z,8900
2019-06-11T15:36:59.940Z,9060
2019-06-11T15:38:15.017Z,18944
2019-06-11T15:39:24.231Z,39200
2019-06-11T15:40:27.186Z,38080
2019-06-11T15:41:32.202Z,36224
2019-06-11T15:42:34.457Z,30112
2019-06-11T15:43:36.817Z,35808
2019-06-11T15:44:39.309Z,37344
2019-06-11T15:45:44.570Z,38752
2019-06-11T15:46:47.796Z,34048
2019-06-11T15:47:53.269Z,35968
2019-06-11T15:48:55.508Z,38048
2019-06-11T15:49:57.749Z,37312
2019-06-11T15:51:00.358Z,35552
2019-06-11T15:52:07.502Z,33952
2019-06-11T15:53:14.358Z,32384
2019-06-11T15:54:17.995Z,18912
2019-06-11T15:55:25.383Z,34304
2019-06-11T15:56:36.144Z,37568
2019-06-11T15:57:47.207Z,24448
2019-06-11T15:58:50.585Z,14144
2019-06-11T15:59:53.342Z,9812
2019-06-11T16:00:55.634Z,14500
2019-06-11T16:01:58.247Z,12020
2019-06-11T16:03:23.025Z,6848
2019-06-11T16:04:25.267Z,5392
2019-06-11T16:05:30.524Z,4840
2019-06-11T16:06:36.845Z,4552
2019-06-11T16:07:42.809Z,4160
2019-06-11T16:08:45.041Z,3888
2019-06-11T16:09:47.883Z,3684
2019-06-11T16:10:53.482Z,3548
2019-06-11T16:11:56.005Z,3520
2019-06-11T16:13:00.427Z,3580
2019-06-11T16:14:09.345Z,3688
2019-06-11T16:15:32.682Z,3940
2019-06-11T16:16:53.249Z,4540
2019-06-11T16:17:56.895Z,4752
2019-06-11T16:19:03.064Z,4872
2019-06-11T16:20:13.769Z,6496
2019-06-11T16:21:25.767Z,13168
2019-06-11T16:22:30.516Z,7720
2019-06-11T16:23:33.038Z,8376
2019-06-11T16:24:35.358Z,16384
2019-06-11T16:25:40.455Z,8956
2019-06-11T16:26:42.965Z,7476
2019-06-11T16:27:45.176Z,7160
2019-06-11T16:28:50.465Z,5704
2019-06-11T16:29:54.448Z,5000
2019-06-11T16:30:57.813Z,4416
2019-06-11T16:32:04.541Z,4008
2019-06-11T16:33:21.051Z,3820
2019-06-11T16:34:24.215Z,3348
2019-06-11T16:35:27.220Z,2948
2019-06-11T16:36:32.444Z,2720
2019-06-11T16:37:34.956Z,2360
2019-06-11T16:38:39.962Z,2404
2019-06-11T16:39:42.524Z,2336
2019-06-11T16:40:45.428Z,2212
2019-06-11T16:41:47.813Z,2124
2019-06-11T16:42:54.292Z,2148
2019-06-11T16:43:56.691Z,2108
2019-06-11T16:45:02.235Z,2100
2019-06-11T16:46:09.222Z,2172
2019-06-11T16:47:32.878Z,2348
2019-06-11T16:48:35.119Z,2588
2019-06-11T16:49:40.793Z,2852
2019-06-11T16:50:43.620Z,3552
2019-06-11T16:51:46.431Z,5784
2019-06-11T16:52:53.251Z,5700
2019-06-11T16:53:55.527Z,8788
2019-06-11T16:55:01.885Z,7740
2019-06-11T16:56:04.806Z,7816
2019-06-11T16:57:10.406Z,4648
2019-06-11T16:58:22.298Z,3084
2019-06-11T16:59:24.785Z,2824
2019-06-11T17:00:30.030Z,2668
2019-06-11T17:01:35.647Z,2756
2019-06-11T17:02:40.960Z,2896
2019-06-11T17:03:43.492Z,2776
2019-06-11T17:04:45.690Z,2904
2019-06-11T17:05:48.232Z,2452
2019-06-11T17:06:53.514Z,2232
2019-06-11T17:07:57.652Z,2240
2019-06-11T17:09:03.989Z,2356
2019-06-11T17:10:06.172Z,2724
2019-06-11T17:11:13.717Z,2912
2019-06-11T17:12:25.556Z,2668
2019-06-11T17:13:30.627Z,2508
2019-06-11T17:14:35.604Z,2544
2019-06-11T17:15:38.007Z,2740
2019-06-11T17:16:46.666Z,2944
2019-06-11T17:17:50.950Z,3468
2019-06-11T17:19:02.826Z,7156
2019-06-11T17:20:05.403Z,4296
2019-06-11T17:21:07.686Z,3748
2019-06-11T17:22:30.463Z,3516
2019-06-11T17:23:32.740Z,3784
2019-06-11T17:24:34.946Z,4116
2019-06-11T17:25:37.505Z,4476
2019-06-11T17:26:42.496Z,4268
2019-06-11T17:27:50.870Z,3980
2019-06-11T17:28:57.282Z,3600
2019-06-11T17:30:02.138Z,3352
2019-06-11T17:31:04.352Z,3104
2019-06-11T17:32:06.833Z,2916
2019-06-11T17:33:11.041Z,2868
2019-06-11T17:34:19.463Z,2760
2019-06-11T17:35:23.153Z,2660
2019-06-11T17:36:27.774Z,2580
2019-06-11T17:37:33.608Z,2624
2019-06-11T17:38:36.226Z,2868
2019-06-11T17:39:41.563Z,3864
2019-06-11T17:40:44.231Z,5940
2019-06-11T17:41:46.420Z,4700
2019-06-11T17:42:50.262Z,3800
2019-06-11T17:43:52.847Z,4012
2019-06-11T17:44:55.060Z,3972
2019-06-11T17:45:57.324Z,3576
2019-06-11T17:47:00.917Z,3684
2019-06-11T17:48:03.644Z,4864
2019-06-11T17:49:05.829Z,5828
2019-06-11T17:50:10.762Z,5040
2019-06-11T17:51:14.022Z,3848
2019-06-11T17:52:18.823Z,3336
2019-06-11T17:53:31.309Z,3252
2019-06-11T17:54:33.986Z,3204
2019-06-11T17:55:36.223Z,3280
2019-06-11T17:56:38.415Z,4416
2019-06-11T17:57:45.905Z,4228
2019-06-11T17:58:50.087Z,4096
2019-06-11T17:59:52.475Z,4004
2019-06-11T18:00:55.065Z,3944
2019-06-11T18:01:57.265Z,3888
2019-06-11T18:03:02.886Z,3880
2019-06-11T18:04:05.483Z,3780
2019-06-11T18:05:07.680Z,3700
2019-06-11T18:06:12.856Z,3696
2019-06-11T18:07:17.332Z,3784
2019-06-11T18:08:35.001Z,3820
2019-06-11T18:09:40.987Z,3708
2019-06-11T18:10:43.707Z,3584
2019-06-11T18:11:45.956Z,3520
2019-06-11T18:12:50.621Z,3384
2019-06-11T18:13:52.917Z,3088
2019-06-11T18:14:55.448Z,2784
2019-06-11T18:15:58.802Z,2584
2019-06-11T18:17:03.850Z,2468
2019-06-11T18:18:06.113Z,2416
2019-06-11T18:19:10.116Z,2364
2019-06-11T18:20:12.418Z,2304
2019-06-11T18:21:15.382Z,2244
2019-06-11T18:22:22.007Z,2164
2019-06-11T18:23:30.278Z,2024
2019-06-11T18:24:33.735Z,1940
2019-06-11T18:25:36.378Z,1924
2019-06-11T18:26:38.538Z,1920
2019-06-11T18:27:47.687Z,1892
2019-06-11T18:28:52.675Z,1860
2019-06-11T18:29:54.861Z,1840
2019-06-11T18:30:57.050Z,1800
2019-06-11T18:32:02.350Z,1756
2019-06-11T18:33:05.179Z,1720
2019-06-11T18:34:10.025Z,1692
2019-06-11T18:35:12.793Z,1668
2019-06-11T18:36:14.995Z,1688
2019-06-11T18:37:18.599Z,1692
2019-06-11T18:38:37.619Z,1700
2019-06-11T18:39:43.555Z,1712
2019-06-11T18:40:46.051Z,1664
2019-06-11T18:41:50.379Z,1596
2019-06-11T18:42:52.842Z,1536
2019-06-11T18:43:55.306Z,1476
2019-06-11T18:44:57.564Z,1436
2019-06-11T18:45:59.759Z,1392
2019-06-11T18:47:09.240Z,1340
2019-06-11T18:48:13.453Z,1296
2019-06-11T18:49:15.623Z,1264
2019-06-11T18:50:20.389Z,1228
2019-06-11T18:51:33.917Z,1188
2019-06-11T18:52:36.970Z,1156
2019-06-11T18:53:42.756Z,1124
2019-06-11T18:54:45.348Z,1092
2019-06-11T18:55:50.121Z,1060
2019-06-11T18:56:52.604Z,1024
2019-06-11T18:57:54.884Z,988
2019-06-11T18:58:57.356Z,952
2019-06-11T19:00:02.050Z,916
2019-06-11T19:01:04.252Z,884
2019-06-11T19:02:06.799Z,848
2019-06-11T19:03:11.316Z,812
2019-06-11T19:04:14.560Z,776
2019-06-11T19:05:16.822Z,740
2019-06-11T19:06:24.027Z,708
2019-06-11T19:07:33.311Z,684
2019-06-11T19:08:35.759Z,660
2019-06-11T19:09:40.358Z,632
2019-06-11T19:10:42.993Z,604
2019-06-11T19:11:45.502Z,584
2019-06-11T19:12:47.756Z,560
2019-06-11T19:13:53.034Z,540
2019-06-11T19:14:55.370Z,528
2019-06-11T19:16:00.097Z,512
2019-06-11T19:17:02.454Z,496
2019-06-11T19:18:04.705Z,480
2019-06-11T19:19:06.890Z,460
2019-06-11T19:20:11.992Z,440
2019-06-11T19:21:17.128Z,424
2019-06-11T19:22:28.980Z,400
2019-06-11T19:23:35.178Z,380
2019-06-11T19:24:37.444Z,360
2019-06-11T19:25:42.850Z,344
2019-06-11T19:26:51.915Z,324
2019-06-11T19:28:05.871Z,308
2019-06-11T19:29:16.747Z,288
2019-06-11T19:30:21.214Z,272
2019-06-11T19:31:36.304Z,256
2019-06-11T19:32:40.345Z,240
2019-06-11T19:33:46.695Z,220
2019-06-11T19:34:50.978Z,212
2019-06-11T19:35:53.289Z,196
2019-06-11T19:36:55.551Z,188
2019-06-11T19:37:57.738Z,176
2019-06-11T19:39:02.882Z,164
2019-06-11T19:40:05.140Z,152
2019-06-11T19:41:07.597Z,144
2019-06-11T19:42:10.590Z,132
2019-06-11T19:43:12.969Z,124
2019-06-11T19:44:15.152Z,116
2019-06-11T19:45:17.363Z,104
2019-06-11T19:46:20.345Z,96
2019-06-11T19:47:48.507Z,88
2019-06-11T19:49:04.720Z,80
2019-06-11T19:50:06.907Z,72
2019-06-11T19:51:11.774Z,68
2019-06-11T19:52:13.959Z,60
2019-06-11T19:53:16.388Z,56
2019-06-11T19:54:20.854Z,52
2019-06-11T19:55:24.582Z,44
2019-06-11T19:56:31.732Z,40
2019-06-11T19:57:43.873Z,40
2019-06-11T19:58:46.106Z,36
2019-06-11T19:59:50.810Z,32
2019-06-11T20:00:53.263Z,28
2019-06-11T20:01:55.421Z,24
2019-06-11T20:03:00.547Z,24
2019-06-11T20:04:03.392Z,20
2019-06-11T20:05:05.628Z,16
2019-06-11T20:06:10.752Z,20
2019-06-11T20:07:13.789Z,16
2019-06-11T20:08:15.975Z,12
2019-06-11T20:09:20.238Z,12
2019-06-11T20:10:22.545Z,12
2019-06-11T20:11:27.300Z,8
2019-06-11T20:12:42.589Z,8
2019-06-11T20:13:45.067Z,8
2019-06-11T20:14:47.310Z,4
2019-06-11T20:15:52.192Z,8
2019-06-11T20:16:54.719Z,4
2019-06-11T20:18:01.146Z,4
2019-06-11T20:19:07.441Z,4
2019-06-11T20:20:12.459Z,4
2019-06-11T20:21:14.653Z,0
2019-06-11T20:22:16.875Z,0
2019-06-11T20:23:21.981Z,4
2019-06-11T20:24:24.501Z,4
2019-06-11T20:25:31.511Z,4
2019-06-11T20:26:44.013Z,0
2019-06-11T20:27:46.216Z,0
2019-06-11T20:28:50.703Z,0
2019-06-11T20:29:53.133Z,0
2019-06-11T20:30:55.717Z,0
2019-06-11T20:32:01.210Z,0
2019-06-11T20:33:05.793Z,0
2019-06-11T20:34:08.045Z,0
2019-06-11T20:35:13.037Z,0
2019-06-11T20:36:15.202Z,0
2019-06-11T20:37:17.465Z,0
2019-06-11T20:38:22.192Z,0
2019-06-11T20:39:24.425Z,0
2019-06-11T20:40:26.632Z,0
2019-06-11T20:41:38.314Z,0
2019-06-11T20:42:45.538Z,0
2019-06-11T20:43:50.203Z,0
2019-06-11T20:44:52.503Z,0
2019-06-11T20:45:54.682Z,0
2019-06-11T20:46:56.941Z,0
2019-06-11T20:48:16.661Z,0
2019-06-11T20:49:34.632Z,0
2019-06-11T20:50:44.762Z,0
2019-06-11T20:51:47.015Z,0
2019-06-11T20:52:52.040Z,0
2019-06-11T20:53:54.549Z,0
2019-06-11T20:54:57.136Z,0
2019-06-11T20:56:00.280Z,0
2019-06-11T20:57:06.832Z,0
2019-06-11T20:58:10.262Z,0
2019-06-11T20:59:12.573Z,0
2019-06-11T21:00:14.766Z,0
2019-06-11T21:01:16.939Z,0
2019-06-11T21:02:22.253Z,0
2019-06-11T21:03:24.434Z,0
2019-06-11T21:04:26.684Z,0
2019-06-11T21:05:32.307Z,0
2019-06-11T21:06:40.701Z,0
2019-06-11T21:07:46.566Z,0
2019-06-11T21:08:50.306Z,0
2019-06-11T21:09:52.833Z,0
2019-06-11T21:10:55.286Z,0
2019-06-11T21:12:00.167Z,0
2019-06-11T21:13:02.809Z,0
2019-06-11T21:14:05.720Z,0
2019-06-11T21:15:09.983Z,0
2019-06-11T21:16:13.037Z,0
2019-06-11T21:17:15.526Z,0
2019-06-11T21:18:31.141Z,0
2019-06-11T21:19:54.286Z,0
2019-06-11T21:20:56.851Z,0
2019-06-11T21:22:00.619Z,0
2019-06-11T21:23:02.958Z,0
2019-06-11T21:24:05.205Z,0
2019-06-11T21:25:07.404Z,0
2019-06-11T21:26:12.221Z,0
2019-06-11T21:27:14.726Z,0
2019-06-11T21:28:17.214Z,0
2019-06-11T21:29:20.183Z,0
2019-06-11T21:30:22.474Z,0
2019-06-11T21:31:24.742Z,0
2019-06-11T21:32:27.193Z,0
2019-06-11T21:33:29.681Z,0
2019-06-11T21:34:31.882Z,0
2019-06-11T21:35:34.698Z,0
2019-06-11T21:36:39.425Z,0
2019-06-11T21:37:49.439Z,0
2019-06-11T21:38:54.280Z,0
2019-06-11T21:39:56.493Z,0
2019-06-11T21:41:00.870Z,0
2019-06-11T21:42:03.625Z,0
2019-06-11T21:43:05.894Z,0
2019-06-11T21:44:08.138Z,0
2019-06-11T21:45:11.052Z,0
2019-06-11T21:46:13.437Z,0
2019-06-11T21:47:16.012Z,0
2019-06-11T21:48:20.397Z,0
2019-06-11T21:49:23.151Z,0
2019-06-11T21:50:25.351Z,0
2019-06-11T21:51:30.069Z,0
2019-06-11T21:52:32.733Z,0
2019-06-11T21:53:35.388Z,0
2019-06-11T21:54:40.715Z,0
2019-06-11T21:55:50.161Z,0
2019-06-11T21:56:52.838Z,0
2019-06-11T21:57:55.026Z,0
2019-06-11T21:58:57.251Z,0
2019-06-11T22:00:00.959Z,0
2019-06-11T22:01:03.811Z,0
2019-06-11T22:02:06.273Z,0
2019-06-11T22:03:10.764Z,0
2019-06-11T22:04:13.114Z,0
2019-06-11T22:05:15.305Z,0
2019-06-11T22:06:20.032Z,0
2019-06-11T22:07:22.373Z,0
2019-06-11T22:08:24.554Z,0
2019-06-11T22:09:27.195Z,0
2019-06-11T22:10:36.416Z,0
2019-06-11T22:11:48.538Z,0
2019-06-11T22:12:53.756Z,0
2019-06-11T22:13:55.979Z,0
2019-06-11T22:15:00.778Z,0
2019-06-11T22:16:03.998Z,0
2019-06-11T22:17:06.889Z,0
2019-06-11T22:18:11.611Z,0
2019-06-11T22:19:18.886Z,0
2019-06-11T22:20:27.450Z,0
2019-06-11T22:21:34.069Z,0
2019-06-11T22:22:37.151Z,0
2019-06-11T22:23:46.119Z,0
2019-06-11T22:24:53.494Z,0
2019-06-11T22:25:55.711Z,0
2019-06-11T22:26:57.883Z,0
2019-06-11T22:28:03.208Z,0
2019-06-11T22:29:05.457Z,0
2019-06-11T22:30:07.643Z,0
2019-06-11T22:31:12.891Z,0
2019-06-11T22:32:15.104Z,0
2019-06-11T22:33:17.442Z,0
2019-06-11T22:34:22.301Z,0
2019-06-11T22:35:24.898Z,0
2019-06-11T22:36:27.521Z,0
2019-06-11T22:37:31.147Z,0
2019-06-11T22:38:33.536Z,0
2019-06-11T22:39:36.012Z,0
2019-06-11T22:40:44.196Z,0
2019-06-11T22:41:53.335Z,0
2019-06-11T22:42:55.507Z,0
2019-06-11T22:43:57.733Z,0
2019-06-11T22:45:03.248Z,0
2019-06-11T22:46:05.503Z,0
2019-06-11T22:47:08.066Z,0
2019-06-11T22:48:13.123Z,0
2019-06-11T22:49:29.083Z,0
2019-06-11T22:50:42.043Z,0
2019-06-11T22:51:58.288Z,0
2019-06-11T22:53:05.238Z,0
2019-06-11T22:54:07.468Z,0
2019-06-11T22:55:12.260Z,0
2019-06-11T22:56:14.520Z,0
2019-06-11T22:57:16.715Z,0
2019-06-11T22:58:20.788Z,0
2019-06-11T22:59:23.453Z,0
2019-06-11T23:00:25.630Z,0
2019-06-11T23:01:30.164Z,0
2019-06-11T23:02:32.486Z,0
2019-06-11T23:03:34.728Z,0
2019-06-11T23:04:36.922Z,0
2019-06-11T23:05:42.170Z,0
2019-06-11T23:06:52.250Z,0
2019-06-11T23:07:54.635Z,0
2019-06-11T23:08:57.244Z,0
2019-06-11T23:10:01.551Z,0
2019-06-11T23:11:04.329Z,0
2019-06-11T23:12:06.514Z,0
2019-06-11T23:13:08.775Z,0
2019-06-11T23:14:10.942Z,0
2019-06-11T23:15:13.155Z,0
2019-06-11T23:16:15.403Z,0
2019-06-11T23:17:17.573Z,0
2019-06-11T23:18:22.608Z,0
2019-06-11T23:19:25.013Z,0
2019-06-11T23:20:29.891Z,0
2019-06-11T23:21:32.182Z,0
2019-06-11T23:22:34.391Z,0
2019-06-11T23:23:36.910Z,0
2019-06-11T23:24:42.730Z,0
2019-06-11T23:25:46.892Z,0
2019-06-11T23:26:56.388Z,0
2019-06-11T23:28:00.031Z,0
2019-06-11T23:29:02.364Z,0
2019-06-11T23:30:04.937Z,0
2019-06-11T23:31:07.598Z,0
2019-06-11T23:32:10.329Z,0
2019-06-11T23:33:12.993Z,0
2019-06-11T23:34:15.180Z,0
2019-06-11T23:35:17.362Z,0
2019-06-11T23:36:22.597Z,0
2019-06-11T23:37:24.781Z,0
2019-06-11T23:38:27.027Z,0
2019-06-11T23:39:32.374Z,0
2019-06-11T23:40:34.563Z,0
2019-06-11T23:41:36.728Z,0
2019-06-11T23:42:39.472Z,0
2019-06-11T23:43:41.748Z,0
2019-06-11T23:44:46.361Z,0
2019-06-11T23:45:53.310Z,0
2019-06-11T23:46:59.275Z,0
2019-06-11T23:48:01.896Z,0
2019-06-11T23:49:04.090Z,0
2019-06-11T23:50:17.744Z,0
2019-06-11T23:51:28.232Z,0
2019-06-11T23:52:33.165Z,0
2019-06-11T23:53:35.419Z,0
2019-06-11T23:54:37.594Z,0
2019-06-11T23:55:39.832Z,0
2019-06-11T23:56:42.029Z,0
2019-06-11T23:57:45.241Z,0
2019-06-11T23:58:53.551Z,0
2019-06-11T23:59:57.287Z,0
